Time,TemperatureF,DewpointF,PressureIn,WindDirection,WindDirectionDegrees,WindSpeedMPH,WindSpeedGustMPH,Humidity,HourlyPrecipIn,Conditions,Clouds,dailyrainin,SoftwareType,DateUTC
2013-07-08 00:01:00,70.0,52.0,29.72,NNE,28,4.0,14.0,53,0.00,,,0.00,,2013-07-08 05:01:00,
2013-07-08 00:12:00,70.0,52.0,29.72,NNE,28,4.0,14.0,53,0.00,,,0.00,,2013-07-08 05:12:00,
2013-07-08 00:22:00,69.0,53.0,29.73,NNW,332,3.0,17.0,57,0.00,,,0.00,,2013-07-08 05:22:00,
2013-07-08 00:33:00,69.0,53.0,29.73,NNW,332,3.0,17.0,57,0.00,,,0.00,,2013-07-08 05:33:00,
2013-07-08 00:43:00,69.0,53.0,29.73,NNW,332,3.0,17.0,57,0.00,,,0.00,,2013-07-08 05:43:00,
2013-07-08 00:53:00,68.0,54.0,29.72,ENE,76,2.0,13.0,60,0.00,,,0.00,,2013-07-08 05:53:00,
2013-07-08 01:01:00,68.0,54.0,29.72,ENE,76,2.0,13.0,60,0.00,,,0.00,,2013-07-08 06:01:00,
2013-07-08 01:11:00,68.0,54.0,29.72,ENE,76,2.0,13.0,60,0.00,,,0.00,,2013-07-08 06:11:00,
2013-07-08 01:22:00,67.0,54.0,29.73,North,357,0.0,9.0,62,0.00,,,0.00,,2013-07-08 06:22:00,
2013-07-08 01:33:00,67.0,54.0,29.73,North,357,0.0,9.0,62,0.00,,,0.00,,2013-07-08 06:33:00,
2013-07-08 01:43:00,67.0,54.0,29.73,North,357,0.0,9.0,62,0.00,,,0.00,,2013-07-08 06:43:00,
2013-07-08 01:53:00,67.0,54.0,29.71,South,174,3.0,13.0,64,0.00,,,0.00,,2013-07-08 06:53:00,
2013-07-08 02:02:00,67.0,54.0,29.71,South,174,3.0,13.0,64,0.00,,,0.00,,2013-07-08 07:02:00,
2013-07-08 02:12:00,67.0,54.0,29.71,South,174,3.0,13.0,64,0.00,,,0.00,,2013-07-08 07:12:00,
2013-07-08 02:22:00,66.0,54.0,29.70,South,169,0.0,7.0,66,0.00,,,0.00,,2013-07-08 07:22:00,
2013-07-08 02:34:00,66.0,54.0,29.70,South,169,0.0,7.0,66,0.00,,,0.00,,2013-07-08 07:34:00,
2013-07-08 02:44:00,66.0,54.0,29.70,South,169,0.0,7.0,66,0.00,,,0.00,,2013-07-08 07:44:00,
2013-07-08 02:53:00,63.0,53.0,29.72,South,169,0.0,3.0,70,0.00,,,0.00,,2013-07-08 07:53:00,
2013-07-08 03:02:00,63.0,53.0,29.72,South,169,0.0,3.0,70,0.00,,,0.00,,2013-07-08 08:02:00,
2013-07-08 03:12:00,63.0,53.0,29.72,South,169,0.0,3.0,70,0.00,,,0.00,,2013-07-08 08:12:00,
2013-07-08 03:22:00,64.0,54.0,29.71,NE,56,2.0,6.0,71,0.00,,,0.00,,2013-07-08 08:22:00,
2013-07-08 03:33:00,64.0,54.0,29.71,NE,56,2.0,6.0,71,0.00,,,0.00,,2013-07-08 08:33:00,
2013-07-08 03:42:00,64.0,54.0,29.71,NE,56,2.0,6.0,71,0.00,,,0.00,,2013-07-08 08:42:00,
2013-07-08 03:53:00,65.0,54.0,29.69,NE,38,1.0,8.0,67,0.00,,,0.00,,2013-07-08 08:53:00,
2013-07-08 04:01:00,65.0,54.0,29.69,NE,38,1.0,8.0,67,0.00,,,0.00,,2013-07-08 09:01:00,
2013-07-08 04:11:00,65.0,54.0,29.69,NE,38,1.0,8.0,67,0.00,,,0.00,,2013-07-08 09:11:00,
2013-07-08 04:22:00,65.0,54.0,29.70,SE,137,1.0,6.0,68,0.00,,,0.00,,2013-07-08 09:22:00,
2013-07-08 04:34:00,65.0,54.0,29.70,SE,137,1.0,6.0,68,0.00,,,0.00,,2013-07-08 09:34:00,
2013-07-08 04:43:00,65.0,54.0,29.70,SE,137,1.0,6.0,68,0.00,,,0.00,,2013-07-08 09:43:00,
2013-07-08 04:53:00,63.0,53.0,29.72,ENE,71,0.0,7.0,71,0.00,,,0.00,,2013-07-08 09:53:00,
2013-07-08 05:02:00,63.0,53.0,29.72,ENE,71,0.0,7.0,71,0.00,,,0.00,,2013-07-08 10:02:00,
2013-07-08 05:11:00,63.0,53.0,29.72,ENE,71,0.0,7.0,71,0.00,,,0.00,,2013-07-08 10:11:00,
2013-07-08 05:22:00,61.0,52.0,29.72,West,261,1.0,6.0,73,0.00,,,0.00,,2013-07-08 10:22:00,
2013-07-08 05:34:00,61.0,52.0,29.72,West,261,1.0,6.0,73,0.00,,,0.00,,2013-07-08 10:34:00,
2013-07-08 05:43:00,61.0,52.0,29.72,West,261,1.0,6.0,73,0.00,,,0.00,,2013-07-08 10:43:00,
2013-07-08 05:53:00,65.0,52.0,29.72,WSW,251,0.0,12.0,63,0.00,,,0.00,,2013-07-08 10:53:00,
2013-07-08 06:02:00,65.0,52.0,29.72,WSW,251,0.0,12.0,63,0.00,,,0.00,,2013-07-08 11:02:00,
2013-07-08 06:11:00,65.0,52.0,29.72,WSW,251,0.0,12.0,63,0.00,,,0.00,,2013-07-08 11:11:00,
2013-07-08 06:22:00,67.0,52.0,29.72,NE,47,4.0,12.0,58,0.00,,,0.00,,2013-07-08 11:22:00,
2013-07-08 06:33:00,67.0,52.0,29.72,NE,47,4.0,12.0,58,0.00,,,0.00,,2013-07-08 11:33:00,
2013-07-08 06:43:00,67.0,52.0,29.72,NE,47,4.0,12.0,58,0.00,,,0.00,,2013-07-08 11:43:00,
2013-07-08 06:53:00,66.0,53.0,29.74,ENE,59,1.0,9.0,63,0.00,,,0.00,,2013-07-08 11:53:00,
2013-07-08 07:01:00,66.0,53.0,29.74,ENE,59,1.0,9.0,63,0.00,,,0.00,,2013-07-08 12:01:00,
2013-07-08 07:11:00,66.0,53.0,29.74,ENE,59,1.0,9.0,63,0.00,,,0.00,,2013-07-08 12:11:00,
2013-07-08 07:22:00,64.0,52.0,29.76,SE,141,0.0,8.0,66,0.00,,,0.00,,2013-07-08 12:22:00,
2013-07-08 07:34:00,64.0,52.0,29.76,SE,141,0.0,8.0,66,0.00,,,0.00,,2013-07-08 12:34:00,
2013-07-08 07:53:00,60.0,53.0,29.82,ESE,117,1.0,6.0,77,0.00,,,0.00,,2013-07-08 12:53:00,
2013-07-08 08:01:00,60.0,53.0,29.82,ESE,117,1.0,6.0,77,0.00,,,0.00,,2013-07-08 13:01:00,
2013-07-08 08:11:00,60.0,53.0,29.82,ESE,117,1.0,6.0,77,0.00,,,0.00,,2013-07-08 13:11:00,
2013-07-08 08:22:00,67.0,54.0,29.79,ESE,109,1.0,5.0,63,0.00,,,0.00,,2013-07-08 13:22:00,
2013-07-08 08:33:00,67.0,54.0,29.79,ESE,109,1.0,5.0,63,0.00,,,0.00,,2013-07-08 13:33:00,
2013-07-08 08:42:00,67.0,54.0,29.79,ESE,109,1.0,5.0,63,0.00,,,0.00,,2013-07-08 13:42:00,
2013-07-08 08:53:00,70.0,54.0,29.80,WSW,258,0.0,7.0,57,0.00,,,0.00,,2013-07-08 13:53:00,
2013-07-08 09:02:00,70.0,54.0,29.80,WSW,258,0.0,7.0,57,0.00,,,0.00,,2013-07-08 14:02:00,
2013-07-08 09:12:00,70.0,54.0,29.80,WSW,258,0.0,7.0,57,0.00,,,0.00,,2013-07-08 14:12:00,
2013-07-08 09:22:00,73.0,54.0,29.79,North,0,1.0,8.0,52,0.00,,,0.00,,2013-07-08 14:22:00,
2013-07-08 09:34:00,73.0,54.0,29.79,North,0,1.0,8.0,52,0.00,,,0.00,,2013-07-08 14:34:00,
2013-07-08 09:43:00,73.0,54.0,29.79,North,0,1.0,8.0,52,0.00,,,0.00,,2013-07-08 14:43:00,
2013-07-08 09:53:00,74.0,55.0,29.80,ESE,112,1.0,8.0,52,0.00,,,0.00,,2013-07-08 14:53:00,
2013-07-08 10:02:00,74.0,55.0,29.80,ESE,112,1.0,8.0,52,0.00,,,0.00,,2013-07-08 15:02:00,
2013-07-08 10:11:00,74.0,55.0,29.80,ESE,112,1.0,8.0,52,0.00,,,0.00,,2013-07-08 15:11:00,
2013-07-08 10:22:00,74.0,54.0,29.80,South,172,5.0,10.0,50,0.00,,,0.00,,2013-07-08 15:22:00,
2013-07-08 10:33:00,74.0,54.0,29.80,South,172,5.0,10.0,50,0.00,,,0.00,,2013-07-08 15:33:00,
2013-07-08 10:43:00,74.0,54.0,29.80,South,172,5.0,10.0,50,0.00,,,0.00,,2013-07-08 15:43:00,
2013-07-08 10:53:00,75.0,53.0,29.82,South,178,3.0,9.0,47,0.00,,,0.00,,2013-07-08 15:53:00,
2013-07-08 11:01:00,75.0,53.0,29.82,South,178,3.0,9.0,47,0.00,,,0.00,,2013-07-08 16:01:00,
2013-07-08 11:11:00,75.0,53.0,29.82,South,178,3.0,9.0,47,0.00,,,0.00,,2013-07-08 16:11:00,
2013-07-08 11:22:00,77.0,53.0,29.81,ENE,65,2.0,12.0,43,0.00,,,0.00,,2013-07-08 16:22:00,
2013-07-08 11:33:00,77.0,53.0,29.81,ENE,65,2.0,12.0,43,0.00,,,0.00,,2013-07-08 16:33:00,
2013-07-08 11:43:00,77.0,53.0,29.81,ENE,65,2.0,12.0,43,0.00,,,0.00,,2013-07-08 16:43:00,
2013-07-08 11:57:00,78.0,53.0,29.82,East,100,3.0,12.0,42,0.00,,,0.00,,2013-07-08 16:57:00,
2013-07-08 12:26:00,78.0,50.0,29.82,SSE,167,3.0,10.0,38,0.00,,,0.00,,2013-07-08 17:26:00,
2013-07-08 12:34:00,79.0,53.0,29.81,East,92,3.0,8.0,41,0.00,,,0.00,,2013-07-08 17:34:00,
2013-07-08 12:36:00,78.0,50.0,29.82,SSE,167,3.0,10.0,38,0.00,,,0.00,,2013-07-08 17:36:00,
2013-07-08 12:48:00,78.0,50.0,29.82,SSE,167,3.0,10.0,38,0.00,,,0.00,,2013-07-08 17:48:00,
2013-07-08 12:55:00,79.0,53.0,29.81,East,92,3.0,8.0,41,0.00,,,0.00,,2013-07-08 17:55:00,
2013-07-08 13:04:00,79.0,53.0,29.81,East,92,3.0,8.0,41,0.00,,,0.00,,2013-07-08 18:04:00,
2013-07-08 13:30:00,79.0,53.0,29.81,East,92,3.0,8.0,41,0.00,,,0.00,,2013-07-08 18:30:00,
2013-07-08 14:00:00,80.0,49.0,29.82,East,100,5.0,12.0,34,0.00,,,0.00,,2013-07-08 19:00:00,
2013-07-08 14:10:00,80.0,49.0,29.82,East,100,5.0,12.0,34,0.00,,,0.00,,2013-07-08 19:10:00,
2013-07-08 14:36:00,80.0,50.0,29.80,SSW,209,9.0,13.0,35,0.00,,,0.00,,2013-07-08 19:36:00,
2013-07-08 15:05:00,82.0,52.0,29.79,NE,48,1.0,13.0,35,0.00,,,0.00,,2013-07-08 20:05:00,
2013-07-08 15:28:00,82.0,52.0,29.79,West,265,1.0,20.0,35,0.00,,,0.00,,2013-07-08 20:28:00,
2013-07-08 15:38:00,82.0,52.0,29.79,West,265,1.0,20.0,35,0.00,,,0.00,,2013-07-08 20:38:00,
2013-07-08 16:08:00,83.0,48.0,29.78,NNE,30,5.0,13.0,30,0.00,,,0.00,,2013-07-08 21:08:00,
2013-07-08 16:29:00,84.0,47.0,29.78,ENE,66,2.0,12.0,28,0.00,,,0.00,,2013-07-08 21:29:00,
2013-07-08 17:07:00,83.0,49.0,29.78,SSW,212,3.0,12.0,31,0.00,,,0.00,,2013-07-08 22:07:00,
2013-07-08 17:28:00,81.0,49.0,29.78,ENE,73,1.0,14.0,33,0.00,,,0.00,,2013-07-08 22:28:00,
2013-07-08 17:39:00,81.0,49.0,29.78,ENE,73,1.0,14.0,33,0.00,,,0.00,,2013-07-08 22:39:00,
2013-07-08 17:58:00,81.0,49.0,29.78,ENE,73,1.0,14.0,33,0.00,,,0.00,,2013-07-08 22:58:00,
2013-07-08 18:09:00,84.0,46.0,29.73,SSE,155,6.0,14.0,27,0.00,,,0.00,,2013-07-08 23:09:00,
2013-07-08 18:18:00,84.0,46.0,29.73,SSE,155,6.0,14.0,27,0.00,,,0.00,,2013-07-08 23:18:00,
2013-07-08 18:30:00,81.0,49.0,29.75,ENE,61,3.0,12.0,33,0.00,,,0.00,,2013-07-08 23:30:00,
2013-07-08 18:59:00,81.0,49.0,29.75,ENE,61,3.0,12.0,33,0.00,,,0.00,,2013-07-08 23:59:00,
2013-07-08 19:09:00,80.0,50.0,29.78,East,96,4.0,12.0,35,0.00,,,0.00,,2013-07-09 00:09:00,
2013-07-08 19:19:00,80.0,50.0,29.78,East,96,4.0,12.0,35,0.00,,,0.00,,2013-07-09 00:19:00,
2013-07-08 19:30:00,78.0,51.0,29.77,East,80,5.0,13.0,39,0.00,,,0.00,,2013-07-09 00:30:00,
2013-07-08 19:39:00,78.0,51.0,29.77,East,80,5.0,13.0,39,0.00,,,0.00,,2013-07-09 00:39:00,
2013-07-08 19:58:00,78.0,51.0,29.77,East,80,5.0,13.0,39,0.00,,,0.00,,2013-07-09 00:58:00,
2013-07-08 20:19:00,77.0,51.0,29.73,East,92,5.0,12.0,40,0.00,,,0.00,,2013-07-09 01:19:00,
2013-07-08 20:30:00,77.0,52.0,29.74,East,88,3.0,13.0,42,0.00,,,0.00,,2013-07-09 01:30:00,
2013-07-08 20:38:00,77.0,52.0,29.74,East,88,3.0,13.0,42,0.00,,,0.00,,2013-07-09 01:38:00,
2013-07-08 20:42:00,75.0,52.0,29.73,ENE,64,5.0,14.0,45,0.00,,,0.00,,2013-07-09 01:42:00,
2013-07-08 21:00:00,77.0,52.0,29.74,East,88,3.0,13.0,42,0.00,,,0.00,,2013-07-09 02:00:00,
2013-07-08 21:21:00,-999.0,-99.9,29.73,ENE,64,5.0,14.0,45,0.00,,,0.00,,2013-07-09 02:21:00,
2013-07-08 21:28:00,75.0,52.0,29.73,ENE,64,5.0,14.0,45,0.00,,,0.00,,2013-07-09 02:28:00,
2013-07-08 22:08:00,73.0,53.0,29.76,ENE,58,6.0,13.0,50,0.00,,,0.00,,2013-07-09 03:08:00,
2013-07-08 23:02:00,71.0,56.0,29.80,East,88,4.0,14.0,59,0.00,,,0.00,,2013-07-09 04:02:00,
2013-07-08 23:11:00,71.0,56.0,29.80,East,88,4.0,14.0,59,0.00,,,0.00,,2013-07-09 04:11:00,
2013-07-08 23:22:00,70.0,57.0,29.80,North,1,4.0,13.0,64,0.00,,,0.00,,2013-07-09 04:22:00,
2013-07-08 23:33:00,70.0,57.0,29.80,North,1,4.0,13.0,64,0.00,,,0.00,,2013-07-09 04:33:00,
2013-07-08 23:43:00,70.0,57.0,29.80,North,1,4.0,13.0,64,0.00,,,0.00,,2013-07-09 04:43:00,
2013-07-08 23:53:00,69.0,58.0,29.80,East,90,2.0,13.0,67,0.00,,,0.00,,2013-07-09 04:53:00,